createdAt,value
2023-03-10T03:08:39.281Z,93257.00
2023-03-10T03:09:38.804Z,93255.00
2023-03-10T03:15:28.256Z,93257.00
2023-03-10T03:16:28.235Z,93259.00
2023-03-10T03:17:28.346Z,93253.00
2023-03-10T03:18:28.276Z,93247.00
2023-03-10T03:19:29.897Z,93247.00
2023-03-10T03:20:28.341Z,93255.00
2023-03-10T03:21:28.377Z,93253.00
2023-03-10T03:22:28.420Z,93253.00
2023-03-10T03:23:28.381Z,93253.00
2023-03-10T03:24:28.414Z,93247.00
2023-03-10T03:25:28.382Z,93242.00
2023-03-10T03:26:28.390Z,93238.00
2023-03-10T03:27:28.422Z,93228.00
2023-03-10T03:28:28.453Z,93226.00
2023-03-10T03:29:28.560Z,93232.00
2023-03-10T03:30:28.591Z,93230.00
2023-03-10T03:33:13.058Z,93224.00
2023-03-10T03:43:02.599Z,93230.00
2023-03-10T03:45:22.620Z,93230.00
2023-03-10T03:58:37.754Z,93214.00
2023-03-10T04:03:39.114Z,93214.00
2023-03-10T06:00:09.053Z,93153.00
2023-03-10T06:16:49.618Z,93153.00
2023-03-10T06:19:10.209Z,93157.00
2023-03-10T06:26:12.296Z,93147.00
2023-03-10T06:43:12.902Z,93159.00
2023-03-10T06:44:11.633Z,93161.00
2023-03-10T07:38:28.297Z,93196.00
2023-03-10T08:09:43.689Z,93183.00
2023-03-10T08:32:00.355Z,93159.00
2023-03-10T08:35:19.715Z,93145.00
2023-03-10T08:36:19.664Z,93147.00
2023-03-10T09:43:28.820Z,93096.00
2023-03-10T09:52:39.442Z,93085.00
2023-03-10T09:56:48.331Z,93075.00
2023-03-10T10:04:41.560Z,93061.00
2023-03-10T10:07:01.063Z,93059.00
2023-03-10T10:07:58.902Z,93056.00
2023-03-10T10:10:18.169Z,93057.00
2023-03-10T10:11:19.228Z,93052.00
2023-03-10T10:17:01.943Z,93038.00
2023-03-10T10:19:19.896Z,93038.00
2023-03-10T10:20:19.677Z,93036.00
2023-03-10T10:21:21.368Z,93036.00
2023-03-10T10:26:18.692Z,93024.00
2023-03-10T10:39:13.592Z,93022.00
2023-03-10T10:43:41.051Z,93024.00
2023-03-10T10:46:00.672Z,93016.00
2023-03-10T10:54:20.164Z,93008.00
2023-03-10T10:56:19.670Z,93003.00
2023-03-10T10:57:19.524Z,92997.00
2023-03-10T10:58:19.492Z,92997.00
2023-03-10T10:59:19.554Z,92993.00
2023-03-10T11:00:19.650Z,92989.00
2023-03-10T11:01:19.531Z,92987.00
2023-03-10T11:02:19.534Z,92981.00
2023-03-10T11:03:19.534Z,92983.00
2023-03-10T11:04:19.535Z,92979.00
2023-03-10T11:05:19.435Z,92979.00
2023-03-10T11:49:21.852Z,92983.00
2023-03-10T11:51:42.157Z,92981.00
2023-03-10T11:52:40.946Z,92981.00
2023-03-10T11:56:19.127Z,92979.00
2023-03-10T11:57:18.876Z,92981.00
2023-03-10T12:02:14.766Z,92973.00
2023-03-10T12:03:14.425Z,92975.00
2023-03-10T12:04:14.600Z,92969.00
2023-03-10T12:05:14.711Z,92971.00
2023-03-10T12:06:14.776Z,92971.00
2023-03-10T12:07:14.559Z,92967.00
2023-03-10T12:08:14.687Z,92969.00
2023-03-10T12:09:14.755Z,92965.00
2023-03-10T12:10:14.787Z,92965.00
2023-03-10T12:12:15.123Z,92959.00
2023-03-10T12:13:14.917Z,92959.00
2023-03-10T12:14:15.401Z,92957.00
2023-03-10T15:03:36.662Z,93022.00
2023-03-10T15:04:36.699Z,93016.00
2023-03-10T15:05:47.843Z,93010.00
2023-03-10T15:06:37.445Z,93008.00
2023-03-10T15:07:36.385Z,93006.00
2023-03-10T15:08:36.551Z,93006.00
2023-03-10T15:09:36.406Z,93008.00
2023-03-10T15:10:36.587Z,93010.00
2023-03-10T15:11:37.692Z,93010.00
2023-03-10T15:12:36.434Z,93010.00
2023-03-10T15:13:36.628Z,93008.00
2023-03-10T15:14:36.630Z,93008.00
2023-03-10T15:20:50.115Z,93024.00
2023-03-10T15:23:29.322Z,93028.00
2023-03-10T16:02:44.383Z,93083.00
2023-03-10T16:03:44.357Z,93083.00
2023-03-10T16:04:44.201Z,93077.00
2023-03-10T16:05:44.165Z,93081.00
2023-03-10T16:06:44.033Z,93077.00
2023-03-10T16:07:44.219Z,93073.00
2023-03-10T16:08:44.180Z,93075.00
2023-03-10T16:09:43.996Z,93077.00
2023-03-10T16:10:44.055Z,93073.00
2023-03-10T16:11:43.972Z,93079.00
2023-03-10T16:12:43.941Z,93087.00
2023-03-10T16:13:44.052Z,93094.00
2023-03-10T16:14:44.068Z,93100.00
2023-03-10T16:15:44.081Z,93098.00
2023-03-10T16:16:44.084Z,93100.00
2023-03-10T16:17:44.096Z,93102.00
2023-03-10T16:18:43.997Z,93104.00
2023-03-10T16:19:43.908Z,93102.00
2023-03-10T16:20:44.201Z,93100.00
2023-03-10T16:21:43.997Z,93100.00
2023-03-10T16:27:03.084Z,93112.00
2023-03-10T16:28:03.178Z,93108.00
2023-03-10T16:29:03.138Z,93102.00
2023-03-10T16:30:03.265Z,93102.00
2023-03-10T16:31:03.191Z,93106.00
2023-03-10T16:32:03.358Z,93106.00
2023-03-10T16:33:03.291Z,93104.00
2023-03-10T16:34:03.458Z,93110.00
2023-03-10T16:35:03.412Z,93116.00
2023-03-10T16:36:03.640Z,93114.00
2023-03-10T16:37:03.585Z,93114.00
2023-03-10T16:38:03.562Z,93116.00
2023-03-10T16:39:03.580Z,93120.00
2023-03-10T16:40:03.652Z,93118.00
2023-03-10T16:41:03.681Z,93120.00
2023-03-10T16:42:03.712Z,93122.00
2023-03-10T16:43:03.835Z,93120.00
2023-03-10T16:44:03.842Z,93124.00
2023-03-10T16:45:03.825Z,93126.00
2023-03-10T16:46:04.026Z,93134.00
2023-03-10T16:47:03.919Z,93140.00
2023-03-10T16:48:03.965Z,93143.00
2023-03-10T16:49:04.026Z,93145.00
2023-03-10T16:50:04.084Z,93145.00
2023-03-10T16:51:04.100Z,93145.00
2023-03-10T16:52:04.191Z,93141.00
2023-03-10T16:53:04.222Z,93143.00
2023-03-10T16:54:04.308Z,93143.00
2023-03-10T16:55:04.450Z,93151.00
2023-03-10T16:56:04.447Z,93155.00
2023-03-10T16:57:04.416Z,93155.00
2023-03-10T16:58:04.480Z,93155.00
2023-03-10T16:59:04.535Z,93157.00
2023-03-10T17:00:04.574Z,93165.00
2023-03-10T17:01:04.658Z,93167.00
2023-03-10T17:02:04.645Z,93165.00
2023-03-10T17:03:04.762Z,93171.00
2023-03-10T17:04:04.964Z,93171.00
2023-03-10T17:05:04.819Z,93175.00
2023-03-10T17:06:04.915Z,93175.00
2023-03-10T17:07:04.996Z,93173.00
2023-03-10T17:08:05.025Z,93171.00
2023-03-10T17:09:05.090Z,93171.00
2023-03-10T17:10:05.132Z,93171.00
2023-03-10T17:11:05.199Z,93173.00
2023-03-10T17:12:05.185Z,93169.00
2023-03-10T17:13:05.252Z,93167.00
2023-03-10T17:14:05.222Z,93165.00
2023-03-10T17:15:05.308Z,93163.00
2023-03-10T17:16:05.315Z,93159.00
2023-03-10T17:17:07.747Z,93157.00
2023-03-10T17:18:05.366Z,93159.00
2023-03-10T17:19:05.269Z,93155.00
2023-03-10T17:20:05.250Z,93157.00
2023-03-10T17:21:05.248Z,93163.00
2023-03-10T17:22:05.207Z,93161.00
2023-03-10T17:23:05.296Z,93159.00
2023-03-10T17:24:05.325Z,93161.00
2023-03-10T17:25:05.256Z,93155.00
2023-03-10T17:26:05.208Z,93157.00
2023-03-10T17:27:05.218Z,93167.00
2023-03-10T17:28:05.187Z,93161.00
2023-03-10T17:29:05.166Z,93165.00
2023-03-10T17:30:05.161Z,93165.00
2023-03-10T17:31:05.193Z,93169.00
2023-03-10T17:32:05.258Z,93169.00
2023-03-10T17:33:05.158Z,93171.00
2023-03-10T17:34:05.187Z,93177.00
2023-03-10T17:35:05.210Z,93179.00
2023-03-10T17:36:05.211Z,93185.00
2023-03-10T17:37:05.214Z,93183.00
2023-03-10T17:38:05.226Z,93187.00
2023-03-10T17:40:24.528Z,93196.00
2023-03-10T17:42:42.946Z,93202.00
2023-03-10T17:43:43.188Z,93206.00
2023-03-10T17:44:43.539Z,93206.00
2023-03-10T17:45:43.073Z,93200.00
2023-03-10T18:27:14.786Z,93261.00
2023-03-10T18:28:14.184Z,93257.00
2023-03-10T18:29:14.314Z,93240.00
2023-03-10T18:30:14.373Z,93259.00
2023-03-10T18:31:14.189Z,93259.00
2023-03-10T18:33:33.686Z,93261.00
2023-03-10T18:34:33.163Z,93259.00
2023-03-10T18:35:33.446Z,93263.00
2023-03-10T18:36:33.348Z,93269.00
2023-03-10T18:37:33.103Z,93269.00
2023-03-10T18:38:33.207Z,93271.00
2023-03-10T19:25:48.399Z,93243.00
2023-03-10T19:26:48.501Z,93247.00
2023-03-10T19:27:48.395Z,93257.00
2023-03-10T19:28:48.334Z,93261.00
2023-03-10T19:29:48.389Z,93263.00
2023-03-10T19:32:07.610Z,93273.00
2023-03-10T19:33:07.563Z,93271.00
2023-03-10T19:35:48.492Z,93249.00
2023-03-10T19:38:07.093Z,93263.00
2023-03-10T19:40:35.304Z,93261.00
2023-03-10T19:42:54.333Z,93255.00
2023-03-10T19:47:13.329Z,93243.00
2023-03-10T19:54:38.139Z,93263.00
2023-03-10T19:56:55.614Z,93261.00
2023-03-10T19:59:14.191Z,93255.00
2023-03-10T20:00:14.539Z,93257.00
2023-03-10T20:01:14.594Z,93263.00
2023-03-10T20:02:14.486Z,93267.00
2023-03-10T20:03:14.385Z,93279.00
2023-03-10T20:04:14.154Z,93283.00
2023-03-10T20:05:14.039Z,93289.00
2023-03-10T20:06:14.112Z,93289.00
2023-03-10T20:09:16.600Z,93294.00
2023-03-10T20:49:52.085Z,93267.00
2023-03-10T20:50:52.028Z,93271.00
2023-03-10T20:51:52.139Z,93275.00
2023-03-10T20:52:52.127Z,93273.00
2023-03-10T20:53:53.081Z,93271.00
2023-03-10T20:54:51.967Z,93271.00
2023-03-10T20:55:51.906Z,93271.00
2023-03-10T20:56:52.020Z,93267.00
2023-03-10T20:57:51.962Z,93269.00
2023-03-10T20:58:51.906Z,93279.00
2023-03-10T20:59:51.866Z,93277.00
2023-03-10T21:00:51.967Z,93275.00
2023-03-10T21:01:51.877Z,93277.00
2023-03-10T21:02:51.847Z,93279.00
2023-03-10T21:03:51.938Z,93285.00
2023-03-10T21:04:51.946Z,93287.00
2023-03-10T21:05:52.023Z,93298.00
2023-03-10T21:06:52.024Z,93294.00
2023-03-10T21:07:52.067Z,93302.00
2023-03-10T21:08:52.139Z,93298.00
2023-03-10T21:09:52.205Z,93296.00
2023-03-10T21:10:52.238Z,93294.00
2023-03-10T21:11:52.376Z,93300.00
2023-03-10T21:19:49.337Z,93298.00
2023-03-10T21:20:49.265Z,93298.00
2023-03-10T21:32:59.636Z,93294.00
2023-03-10T21:35:18.462Z,93302.00
2023-03-10T21:37:38.692Z,93308.00
2023-03-10T21:39:56.352Z,93292.00
2023-03-10T21:42:15.350Z,93302.00
2023-03-10T21:43:15.342Z,93304.00
2023-03-10T21:44:15.230Z,93304.00
2023-03-10T21:45:14.940Z,93302.00
2023-03-10T22:01:08.291Z,93324.00
2023-03-10T22:03:27.002Z,93326.00
2023-03-10T22:08:13.687Z,93359.00
2023-03-10T22:16:20.890Z,93381.00
2023-03-10T22:45:50.330Z,93445.00
2023-03-10T22:48:54.366Z,93428.00
2023-03-10T22:51:27.676Z,93432.00
2023-03-10T22:59:15.512Z,93428.00
2023-03-10T23:03:20.729Z,93445.00
2023-03-10T23:06:58.463Z,93432.00
2023-03-10T23:09:19.485Z,93432.00
2023-03-10T23:11:37.419Z,93428.00
2023-03-10T23:13:56.278Z,93430.00
2023-03-10T23:16:15.096Z,93430.00
2023-03-10T23:17:14.796Z,93432.00
2023-03-10T23:18:15.020Z,93436.00
2023-03-10T23:19:14.676Z,93436.00
2023-03-10T23:20:15.659Z,93430.00
2023-03-10T23:21:14.667Z,93432.00
2023-03-10T23:22:14.642Z,93434.00
2023-03-10T23:23:14.567Z,93439.00
2023-03-10T23:25:33.965Z,93445.00
2023-03-10T23:29:05.447Z,93451.00
2023-03-10T23:31:12.164Z,93461.00
2023-03-10T23:39:49.720Z,93477.00
2023-03-10T23:42:16.561Z,93477.00
2023-03-10T23:43:16.458Z,93479.00
2023-03-10T23:45:35.520Z,93484.00
